Time;durP1;ratioP1;P1;durP2;ratioP2;P2;SDS_P1;SDS_P2;PMS_P1;PMS_P2;Temp;Humidity;BMP_temperature;BMP_pressure;BME280_temperature;BME280_humidity;BME280_pressure;Samples;Min_cycle;Max_cycle;Signal;HPM_P1;HPM_P2
2023/12/12 00:01:07;;;;;;;38.28;20.27;;;;;;;5.84;56.80;98617.06;5014891;28;20447;-71
2023/12/12 00:03:33;;;;;;;36.25;20.05;;;;;;;5.80;56.93;98608.66;5031006;28;20385;-71
2023/12/12 00:05:58;;;;;;;41.05;20.83;;;;;;;5.84;56.72;98621.44;5014287;28;20042;-71
2023/12/12 00:08:23;;;;;;;39.10;20.00;;;;;;;5.84;56.68;98629.19;5030984;28;20041;-70
2023/12/12 00:10:49;;;;;;;39.25;21.02;;;;;;;5.83;56.81;98636.13;5014163;28;20045;-70
2023/12/12 00:13:15;;;;;;;35.88;19.70;;;;;;;5.80;57.15;98638.88;5031861;28;20025;-70
2023/12/12 00:15:40;;;;;;;37.95;19.65;;;;;;;5.75;56.74;98636.56;5030651;28;20449;-70
2023/12/12 00:18:06;;;;;;;36.30;19.58;;;;;;;5.75;56.75;98636.56;5030549;28;20041;-71
2023/12/12 00:20:32;;;;;;;40.88;19.20;;;;;;;5.72;57.04;98633.31;5030693;28;20112;-70
2023/12/12 00:22:59;;;;;;;35.63;18.80;;;;;;;5.75;56.17;98646.09;5013839;28;20048;-72
2023/12/12 00:25:24;;;;;;;36.92;19.23;;;;;;;5.76;56.82;98651.19;5014472;28;20034;-72
2023/12/12 00:27:50;;;;;;;35.35;18.23;;;;;;;5.77;56.92;98652.00;5030517;28;20038;-70
2023/12/12 00:30:15;;;;;;;33.13;18.00;;;;;;;5.75;56.70;98661.63;5032010;28;20465;-72
2023/12/12 00:32:41;;;;;;;31.38;18.42;;;;;;;5.70;56.79;98659.31;5032195;28;20022;-71
2023/12/12 00:35:07;;;;;;;35.47;17.95;;;;;;;5.75;57.06;98674.59;5031479;28;20488;-71
2023/12/12 00:37:32;;;;;;;33.78;18.65;;;;;;;5.75;56.50;98672.00;5030578;28;20052;-72
2023/12/12 00:39:58;;;;;;;38.40;18.75;;;;;;;5.69;56.75;98667.16;5030806;28;20040;-71
2023/12/12 00:42:23;;;;;;;32.80;18.95;;;;;;;5.74;57.08;98671.19;4997306;28;20485;-71
2023/12/12 00:44:49;;;;;;;36.55;19.35;;;;;;;5.74;57.44;98667.72;5034518;28;20034;-71
2023/12/12 00:47:14;;;;;;;36.25;18.83;;;;;;;5.74;57.31;98670.31;5035258;28;20029;-70
2023/12/12 00:49:40;;;;;;;34.00;18.67;;;;;;;5.68;56.89;98660.34;5035097;28;20030;-71
2023/12/12 00:52:06;;;;;;;32.15;18.75;;;;;;;5.74;57.06;98671.19;5034075;28;20029;-70
2023/12/12 00:54:32;;;;;;;34.13;18.88;;;;;;;5.73;56.71;98669.50;5033899;28;20091;-72
2023/12/12 00:56:57;;;;;;;31.60;18.50;;;;;;;5.74;56.97;98668.59;5033688;28;20439;-71
2023/12/12 00:59:23;;;;;;;35.03;18.80;;;;;;;5.73;57.16;98666.09;5017575;28;20060;-70
2023/12/12 01:01:48;;;;;;;34.17;17.58;;;;;;;5.69;57.13;98668.00;5017298;28;20033;-70
2023/12/12 01:04:14;;;;;;;31.02;18.40;;;;;;;5.68;57.47;98663.75;5033720;28;20421;-71
2023/12/12 01:06:39;;;;;;;35.47;17.52;;;;;;;5.73;57.36;98677.28;5016944;28;20033;-72
2023/12/12 01:09:05;;;;;;;33.65;18.67;;;;;;;5.74;57.17;98671.19;5033666;28;20405;-71
2023/12/12 01:11:30;;;;;;;33.60;18.95;;;;;;;5.75;56.96;98672.00;5034646;28;20030;-70
2023/12/12 01:13:56;;;;;;;30.65;18.90;;;;;;;5.75;57.22;98666.81;5016940;28;20045;-71
2023/12/12 01:16:21;;;;;;;32.55;18.42;;;;;;;5.75;57.11;98652.09;5001049;28;20029;-71
2023/12/12 01:18:47;;;;;;;30.08;17.55;;;;;;;5.70;57.44;98637.78;5034662;28;20040;-71
2023/12/12 01:21:12;;;;;;;29.67;17.73;;;;;;;5.75;56.98;98651.28;5033441;28;20034;-70
2023/12/12 01:23:50;;;;;;;25.25;16.08;;;;;;;5.73;56.91;98638.41;5034538;28;20440;-71
2023/12/12 01:26:16;;;;;;;27.67;17.05;;;;;;;5.70;57.18;98617.03;5033362;28;20033;-70
2023/12/12 01:28:41;;;;;;;26.67;16.90;;;;;;;5.75;57.20;98626.19;5033738;28;20056;-70
2023/12/12 01:31:06;;;;;;;26.98;16.80;;;;;;;5.76;56.97;98621.88;5033303;28;20378;-72
2023/12/12 01:33:32;;;;;;;33.15;17.65;;;;;;;5.77;56.82;98615.75;5017032;28;20041;-71
2023/12/12 01:35:57;;;;;;;28.55;17.13;;;;;;;5.75;57.47;98615.00;5032640;28;20402;-71
2023/12/12 01:38:23;;;;;;;26.40;16.52;;;;;;;5.76;57.24;98621.88;5016552;28;20025;-70
2023/12/12 01:40:48;;;;;;;25.38;15.38;;;;;;;5.75;57.24;98628.78;5034193;28;20404;-71
2023/12/12 01:43:24;;;;;;;26.05;15.90;;;;;;;5.70;57.51;98619.63;5034482;28;20113;-70
2023/12/12 01:45:50;;;;;;;26.50;16.67;;;;;;;5.76;57.35;98629.66;5016522;28;20455;-70
2023/12/12 01:48:15;;;;;;;28.40;16.85;;;;;;;5.73;56.92;98612.50;5016391;28;20029;-71
2023/12/12 01:50:41;;;;;;;25.38;15.38;;;;;;;5.75;56.90;98621.03;5016458;28;20412;-71
2023/12/12 01:53:06;;;;;;;26.02;15.15;;;;;;;5.76;57.55;98608.94;5016578;28;20111;-71
2023/12/12 01:55:32;;;;;;;24.02;15.18;;;;;;;5.74;57.40;98609.00;5033904;28;20402;-71
2023/12/12 01:57:57;;;;;;;26.77;14.98;;;;;;;5.72;57.06;98615.19;5016788;28;20111;-70
2023/12/12 02:00:23;;;;;;;23.20;14.93;;;;;;;5.75;57.45;98608.06;5016368;28;20048;-71
2023/12/12 02:02:48;;;;;;;25.13;15.00;;;;;;;5.75;57.30;98599.47;5016164;28;20033;-69
2023/12/12 02:05:14;;;;;;;24.63;14.98;;;;;;;5.70;57.16;98610.09;5016124;28;20030;-71
2023/12/12 02:07:40;;;;;;;24.05;15.27;;;;;;;5.75;57.19;98615.84;5016037;28;20032;-72
2023/12/12 02:10:06;;;;;;;26.52;15.38;;;;;;;5.75;56.74;98618.44;5000035;28;20410;-70
2023/12/12 02:12:31;;;;;;;22.67;14.05;;;;;;;5.73;57.56;98629.81;5015949;28;20042;-70
2023/12/12 02:14:57;;;;;;;23.52;13.98;;;;;;;5.75;57.03;98615.84;5016033;28;20386;-70
2023/12/12 02:17:22;;;;;;;23.60;14.90;;;;;;;5.75;57.16;98589.13;5032127;28;20027;-70
2023/12/12 02:19:48;;;;;;;24.50;14.98;;;;;;;5.76;57.23;98595.97;5015713;28;20045;-70
2023/12/12 02:22:13;;;;;;;23.75;14.18;;;;;;;5.73;57.37;98573.66;5033434;28;20045;-71
2023/12/12 02:24:39;;;;;;;24.38;14.15;;;;;;;5.74;57.03;98615.94;4999128;28;20034;-71
2023/12/12 02:27:04;;;;;;;26.48;14.85;;;;;;;5.69;57.32;98597.25;5032040;28;20397;-71
2023/12/12 02:29:30;;;;;;;26.17;14.77;;;;;;;5.67;57.00;98614.63;5032417;28;20073;-70
2023/12/12 02:31:55;;;;;;;24.77;14.40;;;;;;;5.70;57.11;98604.91;5015682;28;20401;-71
2023/12/12 02:34:21;;;;;;;23.98;15.23;;;;;;;5.70;56.85;98591.97;5031880;28;20041;-71
2023/12/12 02:36:46;;;;;;;25.23;15.88;;;;;;;5.63;56.99;98624.34;5033283;28;20064;-71
2023/12/12 02:39:13;;;;;;;25.27;15.60;;;;;;;5.68;57.29;98630.09;5033292;28;20033;-71
2023/12/12 02:41:38;;;;;;;25.35;16.00;;;;;;;5.68;57.09;98621.50;5031926;28;20057;-72
2023/12/12 02:44:04;;;;;;;25.33;15.70;;;;;;;5.64;57.11;98618.22;5031897;28;20036;-70
2023/12/12 02:46:30;;;;;;;21.88;15.82;;;;;;;5.68;56.92;98601.59;5031675;28;20033;-70
2023/12/12 02:48:55;;;;;;;28.83;16.15;;;;;;;5.63;57.42;98601.03;5032883;28;20393;-72
2023/12/12 02:51:21;;;;;;;24.23;16.10;;;;;;;5.67;57.22;98604.28;5015325;28;20038;-71
2023/12/12 02:53:46;;;;;;;25.00;16.20;;;;;;;5.69;57.38;98595.47;5031969;28;20454;-70
2023/12/12 02:56:12;;;;;;;24.17;15.70;;;;;;;5.69;57.29;98589.47;5031656;28;20037;-71
2023/12/12 02:58:37;;;;;;;23.80;16.08;;;;;;;5.69;57.79;98582.53;5031438;28;20038;-70
2023/12/12 03:01:03;;;;;;;26.17;16.83;;;;;;;5.69;57.01;98573.94;5032627;28;20037;-71
2023/12/12 03:03:28;;;;;;;25.88;17.23;;;;;;;5.64;57.49;98556.06;5031418;28;20021;-70
2023/12/12 03:05:54;;;;;;;25.38;17.95;;;;;;;5.67;57.07;98555.06;5014731;28;20025;-71
2023/12/12 03:08:19;;;;;;;27.23;16.95;;;;;;;5.69;57.48;98563.56;5014870;28;20535;-70
2023/12/12 03:10:46;;;;;;;28.13;17.90;;;;;;;5.56;56.99;98553.94;5014857;28;20045;-71
2023/12/12 03:13:12;;;;;;;29.98;18.30;;;;;;;5.69;57.09;98558.41;5030991;28;20033;-71
2023/12/12 03:15:37;;;;;;;28.20;17.83;;;;;;;5.68;57.36;98546.38;5031581;28;20037;-71
2023/12/12 03:18:03;;;;;;;26.85;18.02;;;;;;;5.64;57.63;98529.34;5014951;28;20036;-71
2023/12/12 03:20:29;;;;;;;28.20;18.33;;;;;;;5.64;57.18;98537.13;5015258;28;20496;-71
2023/12/12 03:22:54;;;;;;;27.10;17.77;;;;;;;5.60;57.49;98550.25;5014488;28;20065;-71
2023/12/12 03:25:20;;;;;;;30.60;19.70;;;;;;;5.60;57.31;98550.25;5014694;28;20160;-71
2023/12/12 03:27:45;;;;;;;27.45;18.58;;;;;;;5.58;57.23;98567.63;5031108;28;20037;-70
2023/12/12 03:30:11;;;;;;;28.70;18.10;;;;;;;5.62;57.34;98614.91;5031178;28;20087;-72
2023/12/12 03:32:36;;;;;;;26.35;18.48;;;;;;;5.63;56.96;98611.41;5031226;28;20091;-71
2023/12/12 03:35:02;;;;;;;25.30;17.65;;;;;;;5.58;57.36;98590.94;5014325;28;20058;-71
2023/12/12 03:37:28;;;;;;;26.83;17.23;;;;;;;5.61;57.61;98608.03;5014647;28;20033;-70
2023/12/12 03:39:53;;;;;;;24.98;16.20;;;;;;;5.58;57.45;98611.66;5032264;28;20038;-71
2023/12/12 03:42:19;;;;;;;24.30;16.73;;;;;;;5.58;57.46;98616.00;5032230;28;20025;-72
2023/12/12 03:44:44;;;;;;;26.95;16.25;;;;;;;5.52;57.89;98604.25;5014341;28;20114;-72
2023/12/12 03:47:10;;;;;;;25.35;15.63;;;;;;;5.52;57.58;98593.88;5030789;28;20032;-72
2023/12/12 03:49:35;;;;;;;24.63;16.75;;;;;;;5.56;57.00;98600.53;5031027;28;20032;-71
2023/12/12 03:52:01;;;;;;;21.38;14.05;;;;;;;5.56;57.86;98592.78;5014479;28;20087;-71
2023/12/12 03:54:26;;;;;;;24.52;14.93;;;;;;;5.58;57.45;98596.13;5032097;28;20457;-71
2023/12/12 03:56:52;;;;;;;26.73;15.27;;;;;;;5.57;57.73;98586.69;5030610;28;20036;-71
2023/12/12 03:59:17;;;;;;;23.35;14.55;;;;;;;5.54;57.59;98570.50;5014493;28;20037;-69
2023/12/12 04:01:49;;;;;;;23.75;15.43;;;;;;;5.57;57.71;98586.69;5030844;28;20040;-71
2023/12/12 04:04:17;;;;;;;23.23;15.23;;;;;;;5.53;57.73;98572.22;5014451;28;20029;-71
2023/12/12 04:06:46;;;;;;;21.97;14.60;;;;;;;5.60;57.70;98580.50;5014664;28;20152;-71
2023/12/12 04:09:12;;;;;;;24.08;14.88;;;;;;;5.56;57.80;98573.81;5014773;28;20274;-71
2023/12/12 04:11:37;;;;;;;21.27;13.90;;;;;;;5.59;57.76;98579.66;5013918;28;20037;-70
2023/12/12 04:14:03;;;;;;;23.77;14.60;;;;;;;5.59;58.12;98582.22;5030582;28;20029;-70
2023/12/12 04:16:28;;;;;;;21.85;14.23;;;;;;;5.52;57.62;98570.59;5030241;28;20037;-71
2023/12/12 04:18:54;;;;;;;25.25;14.27;;;;;;;5.60;57.76;98577.91;5032201;28;20056;-71
2023/12/12 04:21:19;;;;;;;22.13;13.95;;;;;;;5.60;58.04;98578.72;5033929;28;20057;-70
2023/12/12 04:23:44;;;;;;;20.58;14.48;;;;;;;5.61;57.88;98593.34;5034266;28;20030;-71
2023/12/12 04:26:10;;;;;;;22.45;14.70;;;;;;;5.61;57.64;98583.00;5034104;28;20045;-70
2023/12/12 04:28:36;;;;;;;26.73;15.45;;;;;;;5.55;57.78;98583.34;5035465;28;20099;-71
2023/12/12 04:31:02;;;;;;;23.00;15.13;;;;;;;5.62;58.01;98601.94;5017577;28;20029;-72
2023/12/12 04:33:27;;;;;;;22.70;14.75;;;;;;;5.59;57.90;98610.72;5001763;28;20120;-71
2023/12/12 04:35:53;;;;;;;28.27;15.68;;;;;;;5.62;57.42;98614.91;5017065;28;20425;-70
2023/12/12 04:38:18;;;;;;;26.20;15.35;;;;;;;5.60;57.59;98627.94;5017466;28;20049;-71
2023/12/12 04:40:44;;;;;;;27.48;16.42;;;;;;;5.60;58.20;98632.28;5033726;28;20429;-71
2023/12/12 04:43:09;;;;;;;26.92;16.85;;;;;;;5.57;57.66;98625.53;5035231;28;20473;-71
2023/12/12 04:45:35;;;;;;;27.02;17.50;;;;;;;5.52;57.85;98624.09;5034990;28;20037;-69
2023/12/12 04:48:00;;;;;;;28.98;18.30;;;;;;;5.53;58.24;98639.56;5033638;28;20554;-71
2023/12/12 04:50:26;;;;;;;29.98;18.02;;;;;;;5.50;57.83;98631.13;5035464;28;20040;-71
2023/12/12 04:52:52;;;;;;;26.98;17.98;;;;;;;5.53;58.23;98636.13;5017096;28;20413;-70
2023/12/12 04:55:17;;;;;;;29.65;18.38;;;;;;;5.50;57.72;98626.78;5017337;28;20069;-70
2023/12/12 04:57:43;;;;;;;28.08;17.08;;;;;;;5.53;58.17;98620.59;5017023;28;20390;-71
2023/12/12 05:00:13;;;;;;;30.90;17.58;;;;;;;5.54;58.31;98630.06;5017112;28;20041;-72
2023/12/12 05:02:42;;;;;;;28.40;17.75;;;;;;;5.49;58.24;98611.34;5001632;28;20026;-71
2023/12/12 05:05:08;;;;;;;30.10;17.63;;;;;;;5.53;57.91;98631.78;5017547;28;20068;-70
2023/12/12 05:07:33;;;;;;;28.40;17.52;;;;;;;5.50;58.22;98624.19;5016675;28;20156;-72
2023/12/12 05:09:59;;;;;;;28.75;17.45;;;;;;;5.50;58.30;98623.38;5033461;28;20108;-72
2023/12/12 05:12:25;;;;;;;28.58;17.42;;;;;;;5.53;57.82;98629.19;5000607;28;20437;-71
2023/12/12 05:14:50;;;;;;;25.30;17.02;;;;;;;5.52;58.14;98629.28;5034644;28;20436;-70
2023/12/12 05:17:16;;;;;;;27.10;16.88;;;;;;;5.52;57.85;98631.88;5033231;28;20165;-70
2023/12/12 05:19:42;;;;;;;29.92;17.67;;;;;;;5.55;58.22;98645.50;5000488;28;20033;-71
2023/12/12 05:22:07;;;;;;;30.35;17.58;;;;;;;5.57;58.33;98642.81;5034473;28;20025;-69
2023/12/12 05:24:33;;;;;;;29.15;16.90;;;;;;;5.56;58.18;98644.56;5033180;28;20463;-70
2023/12/12 05:26:58;;;;;;;29.65;18.13;;;;;;;5.53;58.36;98641.31;5016665;28;20465;-73
2023/12/12 05:29:24;;;;;;;28.73;17.15;;;;;;;5.59;58.33;98659.91;5016309;28;20064;-70
2023/12/12 05:31:49;;;;;;;28.25;18.27;;;;;;;5.60;58.30;98648.66;5016497;28;20041;-70
2023/12/12 05:34:15;;;;;;;29.55;17.83;;;;;;;5.61;58.59;98646.88;5033096;28;20033;-71
2023/12/12 05:36:40;;;;;;;34.35;19.35;;;;;;;5.61;58.05;98655.50;5033673;28;20081;-71
2023/12/12 05:39:06;;;;;;;28.95;18.30;;;;;;;5.62;58.30;98664.09;5016524;28;20160;-69
2023/12/12 05:41:32;;;;;;;31.40;19.20;;;;;;;5.61;57.88;98665.00;5032996;28;20052;-71
2023/12/12 05:43:57;;;;;;;28.83;17.45;;;;;;;5.62;58.07;98664.09;5032778;28;20072;-72
2023/12/12 05:46:23;;;;;;;33.17;19.13;;;;;;;5.58;58.05;98654.81;5032728;28;20029;-71
2023/12/12 05:48:49;;;;;;;32.55;19.50;;;;;;;5.57;58.25;98643.66;5016498;28;20029;-71
2023/12/12 05:51:14;;;;;;;30.00;18.77;;;;;;;5.62;58.31;98651.16;5032701;28;20489;-73
2023/12/12 05:53:41;;;;;;;32.40;18.90;;;;;;;5.59;57.77;98652.16;4999737;28;20029;-71
2023/12/12 05:56:07;;;;;;;30.88;18.63;;;;;;;5.60;58.16;98655.59;5032529;28;20491;-70
2023/12/12 05:58:32;;;;;;;33.38;19.05;;;;;;;5.61;58.28;98649.47;5016272;28;20397;-70
2023/12/12 06:00:58;;;;;;;28.70;19.33;;;;;;;5.67;58.14;98669.03;5015893;28;20041;-71
2023/12/12 06:03:23;;;;;;;31.02;19.02;;;;;;;5.67;57.99;98672.44;5016119;28;20025;-72
2023/12/12 06:05:49;;;;;;;31.67;19.77;;;;;;;5.70;58.27;98668.84;5015752;28;20473;-70
2023/12/12 06:08:15;;;;;;;34.65;19.33;;;;;;;5.73;58.06;98673.84;5032259;28;20041;-71
2023/12/12 06:10:41;;;;;;;29.25;19.40;;;;;;;5.75;58.29;98677.19;5032228;28;20047;-71
2023/12/12 06:13:07;;;;;;;31.33;19.75;;;;;;;5.79;57.81;98674.31;5015904;28;20029;-71
2023/12/12 06:15:33;;;;;;;31.77;19.67;;;;;;;5.81;57.67;98658.69;5032013;28;20194;-71
2023/12/12 06:17:58;;;;;;;34.05;19.95;;;;;;;5.87;57.24;98666.13;5031500;28;20088;-71
2023/12/12 06:20:25;;;;;;;30.55;19.35;;;;;;;5.89;57.45;98666.03;5032021;28;20552;-72
2023/12/12 06:22:50;;;;;;;32.13;19.65;;;;;;;5.90;57.61;98652.97;5015779;28;20022;-71
2023/12/12 06:25:16;;;;;;;30.10;18.73;;;;;;;5.97;57.22;98662.09;5033260;28;20385;-71
2023/12/12 06:27:41;;;;;;;32.00;19.48;;;;;;;6.04;56.93;98664.31;5031912;28;20065;-72
2023/12/12 06:30:07;;;;;;;33.33;19.50;;;;;;;6.09;57.10;98660.53;5031980;28;20037;-71
2023/12/12 06:32:33;;;;;;;31.45;19.05;;;;;;;6.26;56.47;98675.09;5032024;28;20168;-71
2023/12/12 06:34:59;;;;;;;30.95;19.02;;;;;;;7.75;53.59;98679.72;5032052;28;20037;-73
2023/12/12 06:37:25;;;;;;;28.55;18.73;;;;;;;9.63;49.13;98665.88;5016010;28;20472;-73
2023/12/12 06:39:51;;;;;;;28.08;17.58;;;;;;;10.72;46.57;98675.97;5031789;28;20473;-71
2023/12/12 06:42:17;;;;;;;27.80;17.42;;;;;;;12.12;43.78;98679.56;5032150;28;20485;-71
2023/12/12 06:44:42;;;;;;;24.85;17.25;;;;;;;13.32;42.07;98668.44;5032585;28;20044;-71
2023/12/12 06:47:09;;;;;;;29.83;17.13;;;;;;;13.77;40.83;98677.59;5032485;28;20101;-70
2023/12/12 06:49:34;;;;;;;24.00;16.38;;;;;;;13.15;41.56;98676.00;5031643;28;20493;-71
2023/12/12 06:52:01;;;;;;;26.75;17.70;;;;;;;12.33;43.18;98679.53;5031393;28;20090;-71
2023/12/12 06:54:27;;;;;;;31.10;18.48;;;;;;;11.99;43.91;98687.63;5031698;28;20033;-72
2023/12/12 06:56:52;;;;;;;25.20;17.73;;;;;;;11.71;44.46;98689.84;5031317;28;20031;-71
2023/12/12 06:59:18;;;;;;;26.77;18.35;;;;;;;11.73;44.16;98693.19;5014770;28;20536;-72
2023/12/12 07:01:43;;;;;;;26.75;18.25;;;;;;;12.07;43.86;98695.66;5031062;28;20033;-73
2023/12/12 07:04:09;;;;;;;27.17;18.17;;;;;;;12.29;43.67;98699.09;4998842;28;20052;-73
2023/12/12 07:06:34;;;;;;;25.40;17.45;;;;;;;11.99;44.04;98692.84;5015088;28;20033;-74
2023/12/12 07:09:00;;;;;;;26.63;18.20;;;;;;;11.59;44.93;98699.53;5032425;28;20121;-71
2023/12/12 07:11:25;;;;;;;27.98;19.25;;;;;;;11.45;45.13;98707.66;5014817;28;20087;-71
2023/12/12 07:13:51;;;;;;;27.88;18.08;;;;;;;11.28;45.81;98706.38;5032280;28;20037;-72
2023/12/12 07:16:17;;;;;;;25.90;18.30;;;;;;;11.04;46.51;98689.09;5032286;28;20103;-71
2023/12/12 07:18:42;;;;;;;27.45;18.80;;;;;;;10.99;46.49;98687.78;5032132;28;20477;-70
2023/12/12 07:21:08;;;;;;;34.10;20.23;;;;;;;11.31;46.00;98689.66;5032088;28;20036;-72
2023/12/12 07:23:34;;;;;;;31.88;19.73;;;;;;;11.59;46.31;98694.31;5014680;28;20473;-72
2023/12/12 07:26:00;;;;;;;30.33;20.05;;;;;;;11.67;46.24;98698.91;5014774;28;20056;-71
2023/12/12 07:28:25;;;;;;;30.13;18.67;;;;;;;11.78;45.95;98698.03;4998152;28;20084;-72
2023/12/12 07:30:53;;;;;;;33.47;19.40;;;;;;;11.67;46.00;98692.84;5030774;28;20037;-72
2023/12/12 07:33:18;;;;;;;32.45;20.75;;;;;;;11.59;46.19;98704.75;5031214;28;20063;-72
2023/12/12 07:35:44;;;;;;;34.38;20.63;;;;;;;11.56;45.98;98706.81;5030837;28;20501;-72
2023/12/12 07:38:10;;;;;;;32.90;19.58;;;;;;;11.44;46.49;98708.59;5031342;28;20389;-71
2023/12/12 07:40:35;;;;;;;37.38;21.13;;;;;;;11.41;46.66;98714.06;5014755;28;20029;-73
2023/12/12 07:43:01;;;;;;;33.10;21.02;;;;;;;11.22;46.79;98707.69;5014630;28;20040;-73
2023/12/12 07:45:26;;;;;;;36.28;21.58;;;;;;;11.14;47.20;98715.31;5014191;28;20548;-73
2023/12/12 07:47:52;;;;;;;33.83;21.30;;;;;;;11.13;47.41;98726.75;5014455;28;20052;-72
2023/12/12 07:50:17;;;;;;;36.42;21.90;;;;;;;11.82;46.83;98717.75;4998593;28;20065;-71
2023/12/12 07:52:44;;;;;;;37.42;23.02;;;;;;;11.50;47.01;98715.97;4999860;28;20481;-72
2023/12/12 07:55:09;;;;;;;38.42;23.60;;;;;;;12.20;46.16;98729.47;5018631;28;20033;-72
2023/12/12 07:57:36;;;;;;;34.40;23.70;;;;;;;12.31;46.49;98718.13;5002176;28;20083;-73
2023/12/12 08:00:01;;;;;;;39.92;24.05;;;;;;;12.47;46.00;98728.13;5034847;28;20049;-70
2023/12/12 08:02:27;;;;;;;37.22;23.83;;;;;;;12.37;45.57;98709.75;5036085;28;20378;-71
2023/12/12 08:04:52;;;;;;;39.58;24.45;;;;;;;13.16;45.04;98703.88;5018073;28;20073;-71
2023/12/12 08:07:18;;;;;;;41.65;23.48;;;;;;;13.92;43.94;98712.94;5034739;28;20496;-74
2023/12/12 08:09:44;;;;;;;38.13;23.38;;;;;;;14.59;43.38;98707.69;5002117;28;20107;-72
2023/12/12 08:12:09;;;;;;;42.72;24.65;;;;;;;15.16;42.22;98690.06;5034767;28;20091;-72
2023/12/12 08:14:35;;;;;;;41.95;24.25;;;;;;;15.77;40.92;98692.16;5035780;28;20489;-71
2023/12/12 08:17:00;;;;;;;36.28;23.02;;;;;;;16.40;39.84;98694.59;5034410;28;20056;-71
2023/12/12 08:19:26;;;;;;;34.88;23.70;;;;;;;16.95;38.74;98692.56;5017941;28;20499;-72
2023/12/12 08:21:51;;;;;;;43.88;23.70;;;;;;;17.47;37.67;98691.56;5035763;28;20030;-73
2023/12/12 08:24:17;;;;;;;38.55;23.48;;;;;;;17.97;36.12;98690.66;5017953;28;20033;-72
2023/12/12 08:26:43;;;;;;;33.58;23.40;;;;;;;18.38;35.84;98703.81;5035718;28;20036;-71
2023/12/12 08:29:09;;;;;;;39.38;23.60;;;;;;;18.66;35.13;98710.50;5018026;28;20029;-72
2023/12/12 08:31:35;;;;;;;40.78;25.00;;;;;;;18.57;35.07;98712.38;5018692;28;20037;-70
2023/12/12 08:34:01;;;;;;;38.88;25.48;;;;;;;18.87;34.40;98708.19;5034591;28;20045;-72
2023/12/12 08:36:27;;;;;;;38.47;25.35;;;;;;;19.11;34.08;98706.44;5033926;28;20304;-73
2023/12/12 08:38:53;;;;;;;43.30;27.42;;;;;;;19.47;33.34;98690.03;5035469;28;20413;-72
2023/12/12 08:41:20;;;;;;;48.50;27.38;;;;;;;19.84;32.90;98691.09;5001563;28;20044;-72
2023/12/12 08:43:45;;;;;;;45.65;27.55;;;;;;;20.17;32.32;98685.53;5001337;28;20041;-72
2023/12/12 08:46:11;;;;;;;44.35;28.55;;;;;;;20.23;31.88;98695.41;5035679;28;20527;-71
2023/12/12 08:48:36;;;;;;;47.05;28.98;;;;;;;20.63;31.57;98695.16;5034183;28;20036;-71
2023/12/12 08:51:02;;;;;;;43.80;28.90;;;;;;;21.01;30.65;98671.19;5035359;28;20045;-72
2023/12/12 08:53:27;;;;;;;45.92;32.00;;;;;;;20.49;31.05;98679.06;5035083;28;20528;-73
2023/12/12 08:55:56;;;;;;;55.35;30.42;;;;;;;19.69;31.91;98669.84;5033821;28;20412;-72
2023/12/12 08:58:23;;;;;;;54.95;30.75;;;;;;;19.37;32.39;98669.09;5033938;28;20112;-71
2023/12/12 09:00:48;;;;;;;47.40;30.85;;;;;;;19.83;31.91;98674.41;5034865;28;20116;-72
2023/12/12 09:03:14;;;;;;;54.25;30.60;;;;;;;19.44;32.36;98658.59;5034952;28;20136;-72
2023/12/12 09:05:40;;;;;;;56.78;32.45;;;;;;;20.24;31.42;98659.94;5032959;28;20036;-72
2023/12/12 09:08:05;;;;;;;51.53;32.42;;;;;;;20.68;31.12;98639.78;5033408;28;20115;-72
2023/12/12 09:10:31;;;;;;;55.15;32.85;;;;;;;20.63;30.78;98658.84;5034919;28;20033;-70
2023/12/12 09:12:56;;;;;;;47.60;32.25;;;;;;;21.13;30.47;98641.34;5033186;28;20041;-70
2023/12/12 09:15:22;;;;;;;57.17;31.20;;;;;;;21.55;30.12;98652.19;5033274;28;20029;-73
2023/12/12 09:17:47;;;;;;;56.75;31.90;;;;;;;21.89;29.76;98641.88;5034359;28;20488;-73
2023/12/12 09:20:13;;;;;;;51.72;32.90;;;;;;;22.32;29.02;98647.13;5016730;28;20029;-72
2023/12/12 09:22:38;;;;;;;46.08;32.65;;;;;;;22.63;28.72;98638.69;5000531;28;20129;-72
2023/12/12 09:25:04;;;;;;;53.53;32.00;;;;;;;22.86;28.44;98643.69;5034362;28;20508;-71
2023/12/12 09:27:30;;;;;;;59.55;32.85;;;;;;;23.15;28.25;98631.16;5034577;28;20033;-73
2023/12/12 09:29:55;;;;;;;54.83;32.92;;;;;;;23.38;27.67;98621.97;5033019;28;20041;-73
2023/12/12 09:32:21;;;;;;;61.55;33.53;;;;;;;23.68;27.48;98627.72;5016505;28;20045;-73
2023/12/12 09:34:46;;;;;;;60.28;33.95;;;;;;;24.27;26.55;98619.91;5033018;28;20036;-71
2023/12/12 09:37:12;;;;;;;51.85;33.97;;;;;;;24.99;25.75;98610.03;5032957;28;20045;-74
2023/12/12 09:39:37;;;;;;;54.53;33.38;;;;;;;25.64;24.83;98617.03;5016412;28;20045;-74
2023/12/12 09:42:03;;;;;;;51.17;33.00;;;;;;;26.46;23.90;98610.72;5032619;28;20037;-71
2023/12/12 09:44:30;;;;;;;52.50;31.38;;;;;;;26.86;23.41;98599.56;5016732;28;20108;-72
2023/12/12 09:46:56;;;;;;;55.10;31.73;;;;;;;27.50;22.76;98599.06;5032829;28;20118;-72
2023/12/12 09:49:21;;;;;;;45.78;31.33;;;;;;;27.48;22.53;98591.25;5016249;28;20548;-73
2023/12/12 09:51:47;;;;;;;48.47;30.55;;;;;;;28.15;21.96;98590.16;5016121;28;20053;-73
2023/12/12 09:54:13;;;;;;;53.03;30.77;;;;;;;28.17;22.06;98601.47;5016354;28;20043;-71
2023/12/12 09:56:38;;;;;;;46.97;29.33;;;;;;;28.82;21.07;98599.59;5016039;28;20511;-73
2023/12/12 09:59:05;;;;;;;46.30;28.90;;;;;;;29.00;20.58;98599.41;5016392;28;20091;-73
2023/12/12 10:01:36;;;;;;;40.28;27.45;;;;;;;29.46;20.28;98601.28;5032622;28;20034;-71
2023/12/12 10:04:06;;;;;;;45.42;26.50;;;;;;;29.66;20.21;98598.94;5032533;28;20033;-71
2023/12/12 10:06:35;;;;;;;40.22;25.67;;;;;;;30.05;19.26;98599.00;5032037;28;20042;-71
2023/12/12 10:09:00;;;;;;;39.85;25.30;;;;;;;29.97;19.33;98604.81;5016231;28;20029;-72
2023/12/12 10:11:26;;;;;;;39.63;23.20;;;;;;;30.23;19.29;98599.78;5032307;28;20062;-72
2023/12/12 10:13:56;;;;;;;33.63;22.10;;;;;;;29.95;19.60;98596.16;5015435;28;20480;-72
2023/12/12 10:16:21;;;;;;;28.10;21.40;;;;;;;29.58;20.05;98593.97;4999626;28;20090;-71
2023/12/12 10:18:47;;;;;;;31.88;21.38;;;;;;;29.07;20.88;98599.25;5032422;28;20040;-72
2023/12/12 10:21:20;;;;;;;32.40;20.90;;;;;;;28.54;21.26;98590.41;5031970;28;20110;-72
2023/12/12 10:23:46;;;;;;;30.85;18.95;;;;;;;27.97;21.73;98593.78;5016384;28;20572;-74
2023/12/12 10:26:13;;;;;;;28.92;18.48;;;;;;;27.49;22.46;98592.91;5015515;28;20481;-72
2023/12/12 10:28:38;;;;;;;27.42;18.13;;;;;;;26.96;23.05;98601.69;5032028;28;20112;-72
2023/12/12 10:31:05;;;;;;;25.63;17.30;;;;;;;26.48;23.84;98595.25;5033235;28;20540;-72
2023/12/12 10:33:31;;;;;;;25.20;16.52;;;;;;;26.06;24.34;98595.09;5015647;28;20542;-72
2023/12/12 10:35:57;;;;;;;24.02;16.92;;;;;;;25.67;24.78;98605.91;5014755;28;20061;-75
2023/12/12 10:38:26;;;;;;;23.85;15.52;;;;;;;25.22;25.52;98603.31;4999718;28;20105;-74
2023/12/12 10:40:51;;;;;;;23.48;15.35;;;;;;;24.89;25.95;98596.31;5015494;28;20108;-73
2023/12/12 10:43:17;;;;;;;21.05;15.15;;;;;;;24.65;26.18;98601.34;5015296;28;20095;-72
2023/12/12 10:45:43;;;;;;;20.00;14.75;;;;;;;24.36;26.74;98598.13;5015330;28;20038;-71
2023/12/12 10:48:10;;;;;;;21.63;14.73;;;;;;;24.14;27.02;98600.22;5031721;28;20021;-73
2023/12/12 10:50:35;;;;;;;20.15;13.50;;;;;;;23.88;27.51;98597.59;5015717;28;20467;-74
2023/12/12 10:53:01;;;;;;;19.02;13.57;;;;;;;23.65;27.92;98602.28;5014911;28;20029;-75
2023/12/12 10:55:26;;;;;;;20.30;13.02;;;;;;;23.46;28.02;98598.59;5014943;28;20069;-73
2023/12/12 10:57:54;;;;;;;22.13;14.25;;;;;;;23.31;28.45;98595.31;5014868;28;20148;-72
2023/12/12 11:00:20;;;;;;;18.75;13.00;;;;;;;23.13;28.50;98590.56;5015364;28;20037;-72
2023/12/12 11:02:46;;;;;;;21.95;13.93;;;;;;;23.00;28.82;98585.19;5031457;28;20091;-74
2023/12/12 11:05:13;;;;;;;20.27;12.80;;;;;;;22.81;28.62;98590.25;5031323;28;20068;-72
2023/12/12 11:07:39;;;;;;;19.65;13.38;;;;;;;22.61;29.27;98582.19;5032037;28;20032;-75
2023/12/12 11:10:15;;;;;;;28.98;13.32;;;;;;;22.39;29.86;98578.81;5015125;28;20068;-73
2023/12/12 11:12:42;;;;;;;18.75;13.18;;;;;;;22.20;29.89;98586.47;5015161;28;20076;-73
2023/12/12 11:15:09;;;;;;;23.55;14.70;;;;;;;22.04;30.20;98587.63;4998646;28;20048;-73